Algonquin, Illinois
Current Conditions -  °F | °C
As of 2:52 AM on Friday 19 Dec 2014 (Local Time) from KDPA Reporting Station
Overcast Overcast  
Wind Chill: 22°   Ceiling: 2700
Heat Index: 27°   Visibility: 10mi
Dew Point: 20°   Wind: 5mph
Humidity: 75%   Direction: 290°WNW
Pressure: 30.27"   Gusts: NA
Location:  42.17°N, 88.29°W
Report Text: KDPA 190852Z 29004KT 10SM OVC027 M03/M07 A3027 RMK AO2 SLP259 T10281067 53001
Loading
Personal Weather Stations






























Interactive Weather Map New forecast layout! Learn more

10-Day Weather Forecast

Advertisements
Track Severe Weather on mobile